sim
Sign-in with your pilot id or email,
or register
Callsign
Passwort

Schedule Details

Flight Number: OEO2686
Departure: Bremen Airport (EDDW) at 08:25
Arrival: Fuerteventura Airport (GCFV) at 13:25

Weather Information
Getting current METAR information for EDDW 181950Z 06009KT CAVOK 15/06 Q1029 NOSIG
Getting current METAR information for GCFV 182000Z 36016KT 9999 FEW045 18/11 Q1019

Schedule Frequency

Route Map